Terminal Aerodrome Forecast
Issued by NWS Atlanta, GA

Home | Current Version | Previous Version | Text Only | Print | Product List | Glossary On
Versions: 1 2 3 4 5 6 7 8 9 10 11 12 13 14 15 16 17 18 19 20 21 22 23 24 25 26 27 28 29 30 31 32 33 34 35 36 37 38
000
FTUS42 KFFC 240750 AAA
TAFATL
TAF AMD
KATL 240750Z 2408/2512 12005KT P6SM FEW250
     FM241100 14004KT 5SM BR BKN010
     FM241500 16008KT P6SM SCT025
     FM241800 17009KT P6SM SCT040
     FM250500 20007KT P6SM BKN035
     FM250900 24008KT P6SM BKN015 PROB30 2509/2512 5SM -SHRA BR
      BKN009=

USA.gov is the U.S. government's official web portal to all federal, state and local government web resources and services.